Time;durP1;ratioP1;P1;durP2;ratioP2;P2;SDS_P1;SDS_P2;PMS_P1;PMS_P2;Temp;Humidity;BMP_temperature;BMP_pressure;BME280_temperature;BME280_humidity;BME280_pressure;Samples;Min_cycle;Max_cycle;Signal;HPM_P1;HPM_P2
2023/09/03 00:01:27;;;;;;;3.77;3.43;;;20.80;80.10;;;;;;5043467;28;20467;-51
2023/09/03 00:03:57;;;;;;;4.17;3.77;;;20.80;80.00;;;;;;5004068;28;20486;-51
2023/09/03 00:06:26;;;;;;;4.70;4.20;;;20.80;80.10;;;;;;5043380;28;20445;-52
2023/09/03 00:08:54;;;;;;;6.63;4.50;;;20.90;80.30;;;;;;5043614;28;20535;-52
2023/09/03 00:11:23;;;;;;;4.73;4.23;;;20.80;80.20;;;;;;5043610;28;20477;-53
2023/09/03 00:13:51;;;;;;;3.60;3.30;;;20.80;80.00;;;;;;5031817;28;20458;-52
2023/09/03 00:16:20;;;;;;;5.20;3.93;;;20.90;80.10;;;;;;5046695;28;20459;-51
2023/09/03 00:18:48;;;;;;;4.50;4.10;;;20.80;80.00;;;;;;5047590;28;20798;-52
2023/09/03 00:21:18;;;;;;;5.80;4.50;;;20.80;80.00;;;;;;5032561;28;20463;-52
2023/09/03 00:23:47;;;;;;;4.83;4.07;;;20.80;80.00;;;;;;5046781;28;20435;-50
2023/09/03 00:26:21;;;;;;;5.10;4.60;;;20.80;80.00;;;;;;5048022;28;20440;-52
2023/09/03 00:28:56;;;;;;;4.43;3.90;;;20.80;80.00;;;;;;5039683;28;20469;-50
2023/09/03 00:31:26;;;;;;;5.23;4.73;;;20.80;80.00;;;;;;5062636;28;20492;-52
2023/09/03 00:33:55;;;;;;;6.77;4.03;;;20.80;80.00;;;;;;5036536;28;20487;-53
2023/09/03 00:36:25;;;;;;;5.30;4.80;;;20.80;80.00;;;;;;5009673;28;20459;-51
2023/09/03 00:38:54;;;;;;;4.00;3.60;;;20.80;80.00;;;;;;5044622;28;20487;-52
2023/09/03 00:41:23;;;;;;;5.10;4.60;;;20.80;80.00;;;;;;5046657;28;20632;-52
2023/09/03 00:43:51;;;;;;;4.80;4.20;;;20.80;80.00;;;;;;5045965;28;20444;-54
2023/09/03 00:46:20;;;;;;;4.60;4.20;;;20.80;79.90;;;;;;5043071;28;20494;-50
2023/09/03 00:48:48;;;;;;;4.87;4.37;;;20.80;80.00;;;;;;5046604;28;20451;-51
2023/09/03 00:51:18;;;;;;;4.90;4.50;;;20.80;80.00;;;;;;5005871;28;20461;-52
2023/09/03 00:53:52;;;;;;;6.30;3.90;;;20.80;79.90;;;;;;5015013;28;20435;-52
2023/09/03 00:56:21;;;;;;;4.87;4.10;;;20.80;80.00;;;;;;5049691;28;20469;-54
2023/09/03 00:58:50;;;;;;;4.00;3.70;;;20.80;79.90;;;;;;5044996;28;20554;-52
2023/09/03 01:01:19;;;;;;;4.43;4.03;;;20.80;79.90;;;;;;5014172;28;20440;-53
2023/09/03 01:03:48;;;;;;;4.27;3.87;;;20.80;79.90;;;;;;5030124;28;20982;-53
2023/09/03 01:06:17;;;;;;;4.80;4.40;;;20.80;79.90;;;;;;5043322;28;21079;-52
2023/09/03 01:08:46;;;;;;;4.30;3.90;;;20.80;80.00;;;;;;5013096;28;20899;-53
2023/09/03 01:11:36;;;;;;;4.10;3.70;;;20.80;79.80;;;;;;5047138;28;20853;-52
2023/09/03 01:14:16;;;;;;;2.97;2.60;;;20.80;79.60;;;;;;5012934;28;20439;-51
2023/09/03 01:16:52;;;;;;;3.90;3.57;;;20.80;79.40;;;;;;5032033;28;20472;-50
2023/09/03 01:19:56;;;;;;;3.67;3.37;;;20.80;79.40;;;;;;5046472;28;20480;-53
2023/09/03 01:22:50;;;;;;;3.40;2.90;;;20.80;79.40;;;;;;5033961;28;21024;-52
2023/09/03 01:25:36;;;;;;;3.30;2.90;;;20.80;79.40;;;;;;5028776;28;20444;-53
2023/09/03 01:28:21;;;;;;;3.43;2.97;;;20.80;79.40;;;;;;5008493;28;20468;-53
2023/09/03 01:30:51;;;;;;;3.00;2.70;;;20.80;79.40;;;;;;5045800;28;20817;-53
2023/09/03 01:33:21;;;;;;;3.30;2.77;;;20.80;79.40;;;;;;5045241;28;20526;-52
2023/09/03 01:35:50;;;;;;;3.60;3.27;;;20.80;79.40;;;;;;5012148;28;20593;-52
2023/09/03 01:38:19;;;;;;;5.20;3.60;;;20.80;79.20;;;;;;5008410;28;20543;-53
2023/09/03 01:40:49;;;;;;;3.30;3.00;;;20.80;79.20;;;;;;5013248;28;20460;-51
2023/09/03 01:43:19;;;;;;;2.60;2.40;;;20.80;79.20;;;;;;5012900;28;20868;-52
2023/09/03 01:45:56;;;;;;;4.00;3.60;;;20.80;79.20;;;;;;5006492;28;20879;-51
2023/09/03 01:48:37;;;;;;;2.70;2.50;;;20.80;79.10;;;;;;5042279;28;20542;-52
2023/09/03 01:51:14;;;;;;;3.50;3.20;;;20.80;79.10;;;;;;5034193;28;20449;-52
2023/09/03 01:53:49;;;;;;;5.03;2.80;;;20.80;79.00;;;;;;5028886;28;20699;-52
2023/09/03 01:56:22;;;;;;;3.47;3.17;;;20.80;78.90;;;;;;5011756;28;20471;-52
2023/09/03 01:58:55;;;;;;;3.53;3.23;;;20.80;78.90;;;;;;5045060;28;21230;-52
2023/09/03 02:01:30;;;;;;;3.30;3.00;;;20.80;78.90;;;;;;5036607;28;21055;-52
2023/09/03 02:03:59;;;;;;;4.40;4.00;;;20.80;78.80;;;;;;5037682;28;20544;-53
2023/09/03 02:06:28;;;;;;;4.30;3.90;;;20.80;78.70;;;;;;5046263;28;20468;-53
2023/09/03 02:08:56;;;;;;;5.00;3.73;;;20.80;78.80;;;;;;5010362;28;20831;-52
2023/09/03 02:11:25;;;;;;;4.77;3.13;;;20.80;78.80;;;;;;5004148;28;20844;-51
2023/09/03 02:13:55;;;;;;;4.80;3.73;;;20.80;78.80;;;;;;5011975;28;20532;-52
2023/09/03 02:16:23;;;;;;;5.93;4.10;;;20.80;78.80;;;;;;5043528;28;20451;-51
2023/09/03 02:18:52;;;;;;;3.73;3.40;;;20.80;78.80;;;;;;5045227;28;20554;-51
2023/09/03 02:21:20;;;;;;;4.23;3.70;;;20.80;78.80;;;;;;5036914;28;20546;-52
2023/09/03 02:23:49;;;;;;;4.20;3.90;;;20.80;78.80;;;;;;5013204;28;20432;-50
2023/09/03 02:26:18;;;;;;;3.33;2.93;;;20.80;78.80;;;;;;5011159;28;20491;-53
2023/09/03 02:28:46;;;;;;;3.90;3.60;;;20.80;78.80;;;;;;5029168;28;20977;-52
2023/09/03 02:31:16;;;;;;;4.80;4.40;;;20.70;78.70;;;;;;5043639;28;20532;-50
2023/09/03 02:33:45;;;;;;;3.50;3.20;;;20.80;78.80;;;;;;5037438;28;20444;-52
2023/09/03 02:36:13;;;;;;;4.40;4.00;;;20.80;78.90;;;;;;5042919;28;20510;-52
2023/09/03 02:38:42;;;;;;;3.80;3.50;;;20.80;78.80;;;;;;5012885;28;20463;-52
2023/09/03 02:41:11;;;;;;;4.07;3.77;;;20.70;78.70;;;;;;5012259;28;20470;-52
2023/09/03 02:43:39;;;;;;;3.87;3.47;;;20.70;78.70;;;;;;5045167;28;20471;-53
2023/09/03 02:46:08;;;;;;;3.70;3.30;;;20.70;78.60;;;;;;5049579;28;20432;-50
2023/09/03 02:48:38;;;;;;;3.47;3.13;;;20.70;78.60;;;;;;5044912;28;20463;-54
2023/09/03 02:51:06;;;;;;;4.30;3.30;;;20.80;78.70;;;;;;5039175;28;20966;-52
2023/09/03 02:53:35;;;;;;;4.63;3.70;;;20.80;78.80;;;;;;5010863;28;21063;-52
2023/09/03 02:56:04;;;;;;;4.10;3.70;;;20.70;78.60;;;;;;5042657;28;20993;-53
2023/09/03 02:58:32;;;;;;;3.33;3.03;;;20.70;78.60;;;;;;5041591;28;21177;-53
2023/09/03 03:01:05;;;;;;;4.43;4.03;;;20.70;78.60;;;;;;5037264;28;20468;-50
2023/09/03 03:03:34;;;;;;;3.57;3.27;;;20.70;78.60;;;;;;5026744;28;20448;-52
2023/09/03 03:06:04;;;;;;;4.27;3.40;;;20.80;78.60;;;;;;5038213;28;20496;-52
2023/09/03 03:08:33;;;;;;;6.77;3.67;;;20.70;78.50;;;;;;5011194;28;20550;-51
2023/09/03 03:11:09;;;;;;;5.00;4.50;;;20.70;78.50;;;;;;5010880;28;20450;-53
2023/09/03 03:13:41;;;;;;;4.33;3.93;;;20.70;78.50;;;;;;5009744;28;20436;-53
2023/09/03 03:16:12;;;;;;;4.47;4.07;;;20.70;78.60;;;;;;5010554;28;20487;-53
2023/09/03 03:18:44;;;;;;;3.30;3.00;;;20.70;78.50;;;;;;5010525;28;20476;-53
2023/09/03 03:21:18;;;;;;;3.83;3.53;;;20.70;78.40;;;;;;5037496;28;20973;-52
2023/09/03 03:23:51;;;;;;;4.60;3.67;;;20.70;78.40;;;;;;5042288;28;20556;-50
2023/09/03 03:26:27;;;;;;;3.73;3.40;;;20.70;78.40;;;;;;5010218;28;20859;-51
2023/09/03 03:28:55;;;;;;;3.57;3.27;;;20.70;78.40;;;;;;5037996;28;20514;-52
2023/09/03 03:31:24;;;;;;;4.47;3.83;;;20.70;78.40;;;;;;5042609;28;20531;-50
2023/09/03 03:33:54;;;;;;;5.17;4.10;;;20.70;78.40;;;;;;5043363;28;20760;-52
2023/09/03 03:36:28;;;;;;;4.00;3.60;;;20.70;78.40;;;;;;5002791;28;20477;-55
2023/09/03 03:38:56;;;;;;;3.87;3.47;;;20.70;78.40;;;;;;5035657;28;20460;-52
2023/09/03 03:41:25;;;;;;;4.20;3.80;;;20.70;78.40;;;;;;5046513;28;20580;-52
2023/09/03 03:43:55;;;;;;;3.80;3.40;;;20.70;78.40;;;;;;5014661;28;20505;-53
2023/09/03 03:46:27;;;;;;;4.13;3.73;;;20.70;78.40;;;;;;5012810;28;20538;-52
2023/09/03 03:48:59;;;;;;;4.07;3.70;;;20.70;78.20;;;;;;5042395;28;20504;-50
2023/09/03 03:51:30;;;;;;;7.00;3.20;;;20.70;78.30;;;;;;5042877;28;20523;-53
2023/09/03 03:54:02;;;;;;;3.57;3.27;;;20.70;78.20;;;;;;5041573;28;20436;-52
2023/09/03 03:56:31;;;;;;;3.20;2.90;;;20.70;78.20;;;;;;5046071;28;20496;-52
2023/09/03 03:59:00;;;;;;;3.53;3.23;;;20.70;78.20;;;;;;5046785;28;20545;-52
2023/09/03 04:01:28;;;;;;;4.50;3.53;;;20.70;78.20;;;;;;5040687;28;20456;-53
2023/09/03 04:03:57;;;;;;;3.80;3.30;;;20.70;78.20;;;;;;5026500;28;20805;-52
2023/09/03 04:06:27;;;;;;;3.50;3.20;;;20.70;78.10;;;;;;5038719;28;20841;-53
2023/09/03 04:08:57;;;;;;;3.80;3.50;;;20.70;78.00;;;;;;5044017;28;20447;-53
2023/09/03 04:11:26;;;;;;;3.27;2.97;;;20.70;78.10;;;;;;5013091;28;20447;-53
2023/09/03 04:13:54;;;;;;;4.20;3.83;;;20.70;78.10;;;;;;5042162;28;20447;-53
2023/09/03 04:16:23;;;;;;;4.10;3.70;;;20.70;78.00;;;;;;5049457;28;20513;-51
2023/09/03 04:18:53;;;;;;;4.27;3.87;;;20.60;77.90;;;;;;5025077;28;20804;-52
2023/09/03 04:21:22;;;;;;;3.60;3.30;;;20.60;77.90;;;;;;5027484;28;20469;-51
2023/09/03 04:23:50;;;;;;;4.90;4.40;;;20.70;77.90;;;;;;5027177;28;20812;-52
2023/09/03 04:26:20;;;;;;;3.73;3.10;;;20.60;77.90;;;;;;5012237;28;20467;-51
2023/09/03 04:28:54;;;;;;;4.70;4.20;;;20.60;77.80;;;;;;5056800;28;20524;-51
2023/09/03 04:31:22;;;;;;;4.23;3.83;;;20.60;77.90;;;;;;5027168;28;20436;-54
2023/09/03 04:33:52;;;;;;;4.30;3.57;;;20.60;77.80;;;;;;5055269;28;20482;-51
2023/09/03 04:36:22;;;;;;;4.37;3.50;;;20.60;77.80;;;;;;5016867;28;20499;-53
2023/09/03 04:38:51;;;;;;;7.90;3.57;;;20.60;77.80;;;;;;5057597;28;20462;-51
2023/09/03 04:41:26;;;;;;;4.90;3.47;;;20.60;77.80;;;;;;5033224;28;20976;-50
2023/09/03 04:44:07;;;;;;;4.13;3.60;;;20.60;77.80;;;;;;5060543;28;20437;-50
2023/09/03 04:46:40;;;;;;;4.13;3.27;;;20.60;77.80;;;;;;5027464;28;20554;-52
2023/09/03 04:49:09;;;;;;;4.47;4.07;;;20.60;77.80;;;;;;5033308;28;20819;-52
2023/09/03 04:51:37;;;;;;;3.50;3.20;;;20.60;77.80;;;;;;5048241;28;20444;-51
2023/09/03 04:54:06;;;;;;;7.10;2.87;;;20.60;77.80;;;;;;5016413;28;20856;-53
2023/09/03 04:56:36;;;;;;;2.90;2.70;;;20.60;77.80;;;;;;5014105;28;20491;-53
2023/09/03 04:59:05;;;;;;;2.90;2.63;;;20.60;77.80;;;;;;5021456;28;20518;-54
2023/09/03 05:01:34;;;;;;;2.80;2.50;;;20.60;77.80;;;;;;5053799;28;20474;-51
2023/09/03 05:04:05;;;;;;;3.50;3.20;;;20.60;77.80;;;;;;5033277;28;20466;-52
2023/09/03 05:06:34;;;;;;;4.00;3.70;;;20.60;77.80;;;;;;5021028;28;21010;-52
2023/09/03 05:09:02;;;;;;;3.13;2.83;;;20.60;77.70;;;;;;5049428;28;20874;-51
2023/09/03 05:11:32;;;;;;;3.00;2.70;;;20.60;77.70;;;;;;5044010;28;20656;-51
2023/09/03 05:14:02;;;;;;;3.20;2.50;;;20.60;77.80;;;;;;5023573;28;20432;-52
2023/09/03 05:16:30;;;;;;;2.80;2.50;;;20.60;77.70;;;;;;5043460;28;20504;-53
2023/09/03 05:19:04;;;;;;;2.33;2.10;;;20.60;77.70;;;;;;5047533;28;20609;-52
2023/09/03 05:21:34;;;;;;;2.53;2.30;;;20.60;77.80;;;;;;5026351;28;20468;-51
2023/09/03 05:24:02;;;;;;;3.53;2.60;;;20.60;77.60;;;;;;5022750;28;20453;-51
2023/09/03 05:26:32;;;;;;;2.40;2.20;;;20.60;77.60;;;;;;5028702;28;20459;-54
2023/09/03 05:29:03;;;;;;;2.87;2.57;;;20.60;77.60;;;;;;5014854;28;20464;-52
2023/09/03 05:31:32;;;;;;;2.93;2.73;;;20.60;77.60;;;;;;5043400;28;20460;-53
2023/09/03 05:34:00;;;;;;;2.33;2.13;;;20.60;77.60;;;;;;5025502;28;20431;-53
2023/09/03 05:36:30;;;;;;;4.03;2.80;;;20.60;77.60;;;;;;5044566;28;20445;-53
2023/09/03 05:38:58;;;;;;;4.90;3.47;;;20.60;77.70;;;;;;5030952;28;20918;-53
2023/09/03 05:41:27;;;;;;;3.30;2.83;;;20.60;77.60;;;;;;5028045;28;20471;-52
2023/09/03 05:43:57;;;;;;;5.83;2.60;;;20.60;77.50;;;;;;5047909;28;20450;-52
2023/09/03 05:46:28;;;;;;;3.00;2.73;;;20.60;77.60;;;;;;5061826;28;20876;-52
2023/09/03 05:48:56;;;;;;;2.70;2.50;;;20.60;77.60;;;;;;5016532;28;20459;-52
2023/09/03 05:51:25;;;;;;;2.43;2.23;;;20.60;77.60;;;;;;5016589;28;20831;-51
2023/09/03 05:53:53;;;;;;;2.97;2.67;;;20.50;77.50;;;;;;5031549;28;20462;-52
2023/09/03 05:56:23;;;;;;;3.07;2.77;;;20.60;77.60;;;;;;5027443;28;20460;-51
2023/09/03 05:58:53;;;;;;;4.47;4.03;;;20.50;77.50;;;;;;4998202;28;20491;-52
2023/09/03 06:01:21;;;;;;;3.70;3.40;;;20.50;77.50;;;;;;5023989;28;20845;-52
2023/09/03 06:03:51;;;;;;;4.40;4.00;;;20.50;77.50;;;;;;5061012;28;20566;-53
2023/09/03 06:06:20;;;;;;;6.60;5.70;;;20.60;77.70;;;;;;5044962;28;20469;-51
2023/09/03 06:08:48;;;;;;;5.27;4.77;;;20.50;77.60;;;;;;5023489;28;20464;-51
2023/09/03 06:11:17;;;;;;;4.03;3.47;;;20.50;77.60;;;;;;5017023;28;20436;-52
2023/09/03 06:13:45;;;;;;;4.80;3.90;;;20.50;77.70;;;;;;5064431;28;20444;-53
2023/09/03 06:16:14;;;;;;;4.60;4.13;;;20.50;77.70;;;;;;5016901;28;21055;-53
2023/09/03 06:18:46;;;;;;;7.87;5.57;;;20.50;77.80;;;;;;5058154;28;20885;-53
2023/09/03 06:21:16;;;;;;;7.03;6.30;;;20.50;77.90;;;;;;5041089;28;20447;-53
2023/09/03 06:23:44;;;;;;;6.50;5.30;;;20.50;77.90;;;;;;5059200;28;20835;-53
2023/09/03 06:26:13;;;;;;;6.57;5.87;;;20.50;78.00;;;;;;5018316;28;20501;-52
2023/09/03 06:28:42;;;;;;;6.80;5.80;;;20.50;77.90;;;;;;5027616;28;21008;-51
2023/09/03 06:31:10;;;;;;;6.13;4.30;;;20.50;78.00;;;;;;5021809;28;20447;-53
2023/09/03 06:33:42;;;;;;;5.00;4.43;;;20.50;78.10;;;;;;5031989;28;21046;-51
2023/09/03 06:36:11;;;;;;;7.10;4.90;;;20.50;78.10;;;;;;5016225;28;21017;-52
2023/09/03 06:38:44;;;;;;;5.50;4.83;;;20.50;78.10;;;;;;5044415;28;21041;-50
2023/09/03 06:41:13;;;;;;;7.53;6.83;;;20.50;78.10;;;;;;5025710;28;20971;-53
2023/09/03 06:43:42;;;;;;;6.73;5.37;;;20.50;78.40;;;;;;5016539;28;20473;-53
2023/09/03 06:46:10;;;;;;;7.70;5.90;;;20.50;78.40;;;;;;5025098;28;20538;-54
2023/09/03 06:48:39;;;;;;;6.17;5.03;;;20.50;78.40;;;;;;5029878;28;20447;-53
2023/09/03 06:51:07;;;;;;;6.73;5.50;;;20.50;78.30;;;;;;5004165;28;20860;-52
2023/09/03 06:53:36;;;;;;;5.90;5.23;;;20.50;78.40;;;;;;5051426;28;20466;-51
2023/09/03 06:56:06;;;;;;;6.83;5.90;;;20.50;78.40;;;;;;5046059;28;20498;-53
2023/09/03 06:58:34;;;;;;;6.17;5.57;;;20.50;78.60;;;;;;5016338;28;20482;-52
2023/09/03 07:01:04;;;;;;;6.63;5.17;;;20.50;78.50;;;;;;5049676;28;20444;-53
2023/09/03 07:03:32;;;;;;;7.90;4.40;;;20.50;78.50;;;;;;5026365;28;20999;-52
2023/09/03 07:06:01;;;;;;;5.67;5.07;;;20.50;78.50;;;;;;5054609;28;20542;-51
2023/09/03 07:08:30;;;;;;;4.30;3.73;;;20.50;78.40;;;;;;5023417;28;20487;-52
2023/09/03 07:11:01;;;;;;;4.90;4.40;;;20.50;78.30;;;;;;5044716;28;20456;-52
2023/09/03 07:13:31;;;;;;;10.40;9.30;;;20.50;78.20;;;;;;5010274;28;20432;-53
2023/09/03 07:16:04;;;;;;;8.70;7.23;;;20.50;78.40;;;;;;5047091;28;20446;-52
2023/09/03 07:18:33;;;;;;;11.70;8.93;;;20.50;78.60;;;;;;5053154;28;20522;-55
2023/09/03 07:21:05;;;;;;;8.23;6.43;;;20.50;78.60;;;;;;5017760;28;20544;-54
2023/09/03 07:23:33;;;;;;;5.90;5.27;;;20.50;78.70;;;;;;5052110;28;20509;-54
2023/09/03 07:26:03;;;;;;;11.20;8.53;;;20.50;79.70;;;;;;5015773;28;20435;-54
2023/09/03 07:28:33;;;;;;;7.83;7.03;;;20.50;79.10;;;;;;5028041;28;20459;-51
2023/09/03 07:31:02;;;;;;;5.00;4.47;;;20.50;79.20;;;;;;5019358;28;20444;-51
2023/09/03 07:33:31;;;;;;;7.30;6.33;;;20.50;78.70;;;;;;5012544;28;20448;-53
2023/09/03 07:36:00;;;;;;;6.63;5.20;;;20.50;78.60;;;;;;5021195;28;20555;-51
2023/09/03 07:38:29;;;;;;;5.67;4.70;;;20.50;78.40;;;;;;5021302;28;20447;-51
2023/09/03 07:40:57;;;;;;;4.83;4.30;;;20.50;78.40;;;;;;5044115;28;20673;-52
2023/09/03 07:43:26;;;;;;;6.33;5.60;;;20.50;78.30;;;;;;5013377;28;21052;-50
2023/09/03 07:45:55;;;;;;;8.90;7.00;;;20.50;78.60;;;;;;5013329;28;20454;-52
2023/09/03 07:48:24;;;;;;;7.23;6.53;;;20.50;78.60;;;;;;5029784;28;20459;-52
2023/09/03 07:50:53;;;;;;;11.03;9.90;;;20.50;78.70;;;;;;5054992;28;20462;-52
2023/09/03 07:53:24;;;;;;;14.57;11.77;;;20.50;78.90;;;;;;5053612;28;20995;-54
2023/09/03 07:55:53;;;;;;;8.67;7.23;;;20.50;79.20;;;;;;5062315;28;20511;-52
2023/09/03 07:58:21;;;;;;;9.63;7.50;;;20.40;78.90;;;;;;5056472;28;20459;-50
2023/09/03 08:00:52;;;;;;;8.53;6.60;;;20.40;79.00;;;;;;5051716;28;20454;-52
2023/09/03 08:03:22;;;;;;;8.33;7.43;;;20.40;79.00;;;;;;5040634;28;20475;-53
2023/09/03 08:05:51;;;;;;;8.43;7.43;;;20.40;79.00;;;;;;5022247;28;20582;-51
2023/09/03 08:08:19;;;;;;;9.23;6.80;;;20.40;78.80;;;;;;5037849;28;20437;-53
2023/09/03 08:10:48;;;;;;;14.77;13.23;;;20.40;79.50;;;;;;5060055;28;20435;-51
2023/09/03 08:13:16;;;;;;;20.73;16.90;;;20.40;79.70;;;;;;5029252;28;20437;-52
2023/09/03 08:15:45;;;;;;;10.30;8.87;;;20.40;80.90;;;;;;5053948;28;20529;-53
2023/09/03 08:18:16;;;;;;;8.83;7.50;;;20.40;79.70;;;;;;5050104;28;20456;-52
2023/09/03 08:20:47;;;;;;;9.83;8.03;;;20.40;79.30;;;;;;5056868;28;20489;-51
2023/09/03 08:23:16;;;;;;;14.07;11.57;;;20.40;79.40;;;;;;5031451;28;20719;-52
2023/09/03 08:25:45;;;;;;;8.23;7.17;;;20.40;79.40;;;;;;5025404;28;20438;-52
2023/09/03 08:28:14;;;;;;;15.53;12.97;;;20.40;79.10;;;;;;5033427;28;20493;-51
2023/09/03 08:30:42;;;;;;;12.00;9.50;;;20.40;79.60;;;;;;5011119;28;20451;-53
2023/09/03 08:33:11;;;;;;;11.73;10.07;;;20.40;79.40;;;;;;5051428;28;20809;-52
2023/09/03 08:35:39;;;;;;;9.17;7.13;;;20.40;79.90;;;;;;5027062;28;20795;-52
2023/09/03 08:38:09;;;;;;;13.13;9.27;;;20.40;79.50;;;;;;5044494;28;20928;-51
2023/09/03 08:40:43;;;;;;;15.73;12.67;;;20.40;80.10;;;;;;5064815;28;20438;-52
2023/09/03 08:43:15;;;;;;;14.00;11.47;;;20.40;80.40;;;;;;5016621;28;20912;-52
2023/09/03 08:45:50;;;;;;;10.10;8.57;;;20.40;80.10;;;;;;5054625;28;20447;-52
2023/09/03 08:48:19;;;;;;;14.17;12.20;;;20.40;80.00;;;;;;5065736;28;20497;-52
2023/09/03 08:50:48;;;;;;;9.00;7.20;;;20.40;80.60;;;;;;5027919;28;20443;-52
2023/09/03 08:53:18;;;;;;;8.93;7.90;;;20.40;79.90;;;;;;5060441;28;20435;-52
2023/09/03 08:55:48;;;;;;;10.70;9.60;;;20.40;79.60;;;;;;5029950;28;20784;-51
2023/09/03 08:58:16;;;;;;;13.63;10.70;;;20.40;79.80;;;;;;5026642;28;20455;-52
2023/09/03 09:00:45;;;;;;;15.33;12.83;;;20.40;80.20;;;;;;5061308;28;20451;-52
2023/09/03 09:03:17;;;;;;;9.17;8.27;;;20.40;80.80;;;;;;5031574;28;20442;-51
2023/09/03 09:05:48;;;;;;;10.27;8.53;;;20.40;79.90;;;;;;5037030;28;20467;-51
2023/09/03 09:08:18;;;;;;;8.43;7.20;;;20.40;79.50;;;;;;5044156;28;21004;-53
2023/09/03 09:10:48;;;;;;;10.90;9.00;;;20.40;79.20;;;;;;5063456;28;20426;-54
2023/09/03 09:13:23;;;;;;;19.07;14.83;;;20.40;79.50;;;;;;5064937;28;20451;-52
2023/09/03 09:15:52;;;;;;;13.37;11.27;;;20.40;80.60;;;;;;5026378;28;20494;-52
2023/09/03 09:18:20;;;;;;;9.00;7.70;;;20.40;79.90;;;;;;5027845;28;20465;-52
2023/09/03 09:20:51;;;;;;;7.07;6.37;;;20.40;79.40;;;;;;5020426;28;20514;-51
2023/09/03 09:23:23;;;;;;;12.87;10.83;;;20.40;79.00;;;;;;5051604;28;20453;-52
2023/09/03 09:25:51;;;;;;;15.83;13.13;;;20.40;80.00;;;;;;5030658;28;20433;-52
2023/09/03 09:28:21;;;;;;;15.00;12.87;;;20.40;81.00;;;;;;5020791;28;20471;-51
2023/09/03 09:30:54;;;;;;;9.37;7.60;;;20.40;81.40;;;;;;5053052;28;20463;-52
2023/09/03 09:33:23;;;;;;;13.40;10.90;;;20.40;80.30;;;;;;5061303;28;20443;-52
2023/09/03 09:35:53;;;;;;;11.13;9.67;;;20.30;80.50;;;;;;5018665;28;20804;-52
2023/09/03 09:38:35;;;;;;;11.93;10.07;;;20.40;80.80;;;;;;5020226;28;20447;-52
2023/09/03 09:41:22;;;;;;;9.53;7.70;;;20.40;81.00;;;;;;5030831;28;20465;-52
2023/09/03 09:43:52;;;;;;;11.33;9.13;;;20.40;80.10;;;;;;5024672;28;20431;-51
2023/09/03 09:46:27;;;;;;;7.63;6.83;;;20.40;80.40;;;;;;5050516;28;20451;-52
2023/09/03 09:48:58;;;;;;;11.03;9.57;;;20.40;79.90;;;;;;5022787;28;20987;-51
2023/09/03 09:51:28;;;;;;;10.20;8.17;;;20.40;79.90;;;;;;5033809;28;20501;-52
2023/09/03 09:53:59;;;;;;;7.20;6.50;;;20.40;79.90;;;;;;5059903;28;20956;-52
2023/09/03 09:56:29;;;;;;;5.67;5.10;;;20.40;79.60;;;;;;5031107;28;20925;-53
2023/09/03 09:58:58;;;;;;;6.80;6.00;;;20.40;79.10;;;;;;5063430;28;20463;-55
2023/09/03 10:01:28;;;;;;;6.03;5.53;;;20.40;79.00;;;;;;5051349;28;20499;-51
2023/09/03 10:03:56;;;;;;;7.63;6.50;;;20.40;78.80;;;;;;5054967;28;20440;-51
2023/09/03 10:06:26;;;;;;;7.23;6.50;;;20.40;79.00;;;;;;5056098;28;21121;-52
2023/09/03 10:08:55;;;;;;;7.27;6.57;;;20.40;78.90;;;;;;5030167;28;21076;-52
2023/09/03 10:11:25;;;;;;;10.10;8.87;;;20.40;78.90;;;;;;5013951;28;20559;-50
2023/09/03 10:13:55;;;;;;;6.70;6.00;;;20.40;79.00;;;;;;5062043;28;20432;-51
2023/09/03 10:16:24;;;;;;;6.63;5.23;;;20.40;79.00;;;;;;5037141;28;20965;-51
2023/09/03 10:18:55;;;;;;;7.93;7.00;;;20.40;78.80;;;;;;5062639;28;20495;-51
2023/09/03 10:21:26;;;;;;;8.33;6.67;;;20.40;78.80;;;;;;5055160;28;20491;-53
2023/09/03 10:24:19;;;;;;;7.77;7.00;;;20.40;78.60;;;;;;5041821;28;20474;-53
2023/09/03 10:26:53;;;;;;;6.50;5.90;;;20.40;78.60;;;;;;5029179;28;20482;-51
2023/09/03 10:29:24;;;;;;;6.73;6.13;;;20.40;78.60;;;;;;5022231;28;20467;-52
2023/09/03 10:31:57;;;;;;;9.83;7.70;;;20.40;78.90;;;;;;5059385;28;20485;-51
2023/09/03 10:34:26;;;;;;;7.40;6.37;;;20.40;79.00;;;;;;5055609;28;20558;-51
2023/09/03 10:37:15;;;;;;;7.83;7.03;;;20.40;78.60;;;;;;5036231;28;20467;-51
2023/09/03 10:39:45;;;;;;;6.67;5.93;;;20.40;78.70;;;;;;5023421;28;20449;-51
2023/09/03 10:42:31;;;;;;;7.00;6.37;;;20.40;78.60;;;;;;5023523;28;20465;-51
2023/09/03 10:45:02;;;;;;;6.70;6.10;;;20.40;78.70;;;;;;5014118;28;20905;-52
2023/09/03 10:47:31;;;;;;;9.70;7.57;;;20.40;78.50;;;;;;5028620;28;20595;-54
2023/09/03 10:49:59;;;;;;;8.07;7.13;;;20.40;78.90;;;;;;5046894;28;20462;-52
2023/09/03 10:52:40;;;;;;;7.03;6.03;;;20.40;78.70;;;;;;5010312;28;20459;-52
2023/09/03 10:55:16;;;;;;;10.63;9.17;;;20.40;78.60;;;;;;5021051;28;20435;-53
2023/09/03 10:57:47;;;;;;;7.73;6.50;;;20.40;79.00;;;;;;5027781;28;20553;-53
2023/09/03 11:00:20;;;;;;;11.77;10.13;;;20.40;78.80;;;;;;5049945;28;21042;-51
2023/09/03 11:02:49;;;;;;;8.00;7.30;;;20.40;78.90;;;;;;5038829;28;20875;-53
2023/09/03 11:05:21;;;;;;;8.57;7.67;;;20.40;78.60;;;;;;5024672;28;20828;-50
2023/09/03 11:07:51;;;;;;;9.27;8.37;;;20.40;78.70;;;;;;5034875;28;21142;-52
2023/09/03 11:10:41;;;;;;;7.77;6.90;;;20.40;78.80;;;;;;5027562;28;20427;-50
2023/09/03 11:13:13;;;;;;;6.90;6.20;;;20.40;78.50;;;;;;5013724;28;20476;-50
2023/09/03 11:15:58;;;;;;;9.90;6.80;;;20.40;78.40;;;;;;5016726;28;20438;-52
2023/09/03 11:18:27;;;;;;;8.10;6.83;;;20.40;78.60;;;;;;5029077;28;20454;-52
2023/09/03 11:20:57;;;;;;;7.43;6.60;;;20.40;78.40;;;;;;5055382;28;20455;-53
2023/09/03 11:23:27;;;;;;;8.90;7.80;;;20.40;78.40;;;;;;5043367;28;20521;-53
2023/09/03 11:26:05;;;;;;;9.17;6.57;;;20.40;78.30;;;;;;5029084;28;20458;-50
2023/09/03 11:28:38;;;;;;;7.90;7.10;;;20.40;78.40;;;;;;5052103;28;20509;-51
2023/09/03 11:31:07;;;;;;;6.60;5.80;;;20.40;78.40;;;;;;5018608;28;20563;-50
2023/09/03 11:33:36;;;;;;;8.70;7.30;;;20.40;78.20;;;;;;5002831;28;20440;-53
2023/09/03 11:36:04;;;;;;;8.60;7.13;;;20.40;78.30;;;;;;5036218;28;20554;-49
2023/09/03 11:38:33;;;;;;;7.23;6.50;;;20.50;78.30;;;;;;5059189;28;20475;-50
2023/09/03 11:41:06;;;;;;;7.30;6.60;;;20.40;78.10;;;;;;5058990;28;20430;-50
2023/09/03 11:43:39;;;;;;;10.63;9.13;;;20.40;78.10;;;;;;5024906;28;20438;-52
2023/09/03 11:46:13;;;;;;;7.60;6.90;;;20.40;78.20;;;;;;5050361;28;20471;-53
2023/09/03 11:48:42;;;;;;;6.87;6.20;;;20.50;78.20;;;;;;5053735;28;20458;-50
2023/09/03 11:51:10;;;;;;;8.83;7.20;;;20.50;78.10;;;;;;5046079;28;20524;-51
2023/09/03 11:53:41;;;;;;;8.43;7.63;;;20.50;78.10;;;;;;5057246;28;20509;-51
2023/09/03 11:56:13;;;;;;;9.13;7.83;;;20.50;78.10;;;;;;5027240;28;20523;-52
2023/09/03 11:58:46;;;;;;;8.60;7.63;;;20.50;78.20;;;;;;5061381;28;20523;-52
2023/09/03 12:01:15;;;;;;;7.00;6.30;;;20.50;78.20;;;;;;5034973;28;20798;-53
2023/09/03 12:03:44;;;;;;;7.60;6.90;;;20.50;78.00;;;;;;5044807;28;20495;-52
2023/09/03 12:06:12;;;;;;;7.50;6.30;;;20.50;78.00;;;;;;5018675;28;20456;-51
2023/09/03 12:08:41;;;;;;;7.73;6.30;;;20.50;78.00;;;;;;5027712;28;20450;-51
2023/09/03 12:11:10;;;;;;;7.37;6.67;;;20.50;77.90;;;;;;5026309;28;20956;-51
2023/09/03 12:13:40;;;;;;;6.80;6.20;;;20.50;77.80;;;;;;5044602;28;20428;-53
2023/09/03 12:16:15;;;;;;;7.10;6.40;;;20.50;77.80;;;;;;5017469;28;20473;-51
2023/09/03 12:18:56;;;;;;;7.20;6.50;;;20.50;77.70;;;;;;5001128;28;20525;-51
2023/09/03 12:21:33;;;;;;;7.17;6.47;;;20.50;77.70;;;;;;5052557;28;20449;-50
2023/09/03 12:24:04;;;;;;;7.60;6.73;;;20.50;77.80;;;;;;5042778;28;20492;-51
2023/09/03 12:26:35;;;;;;;7.07;6.37;;;20.50;77.70;;;;;;5030955;28;20489;-53
2023/09/03 12:29:04;;;;;;;6.83;6.03;;;20.50;77.70;;;;;;5045888;28;20924;-52
2023/09/03 12:31:41;;;;;;;6.40;5.80;;;20.50;77.60;;;;;;5031413;28;20440;-52
2023/09/03 12:34:10;;;;;;;7.80;6.97;;;20.50;77.60;;;;;;5030630;28;20478;-51
2023/09/03 12:36:56;;;;;;;8.60;7.77;;;20.50;77.60;;;;;;5004047;28;20483;-51
2023/09/03 12:39:32;;;;;;;6.90;6.13;;;20.50;77.50;;;;;;5044428;28;20475;-53
2023/09/03 12:42:01;;;;;;;6.77;6.17;;;20.50;77.50;;;;;;5010964;28;20481;-52
2023/09/03 12:44:30;;;;;;;7.50;6.60;;;20.50;77.50;;;;;;5024333;28;20513;-53
2023/09/03 12:47:02;;;;;;;7.00;6.30;;;20.50;77.40;;;;;;5021379;28;20476;-51
2023/09/03 12:49:31;;;;;;;6.40;5.83;;;20.50;77.40;;;;;;5013040;28;20504;-51
2023/09/03 12:52:00;;;;;;;7.00;5.97;;;20.50;77.40;;;;;;5060577;28;20495;-50
2023/09/03 12:54:29;;;;;;;7.73;6.30;;;20.50;77.40;;;;;;5054333;28;20431;-50
2023/09/03 12:56:57;;;;;;;6.10;5.43;;;20.50;77.30;;;;;;5045030;28;20460;-51
2023/09/03 12:59:26;;;;;;;7.90;6.10;;;20.50;77.20;;;;;;5050021;28;20895;-52
2023/09/03 13:01:54;;;;;;;7.60;6.90;;;20.50;77.30;;;;;;5020412;28;20460;-51
2023/09/03 13:04:24;;;;;;;5.90;5.40;;;20.50;77.20;;;;;;5025762;28;20444;-51